Terminal Aerodrome Forecast
Issued by NWS Charleston, WV

Current Version | Previous Version | Graphics & Text | Print | Product List | Glossary On
Versions: 1 2 3 4 5 6 7 8 9 10 11 12 13 14 15 16 17 18 19 20 21 22 23 24 25 26 27 28
000
FTUS41 KRLX 251700
TAFBKW
TAF
KBKW 251722Z 2518/2618 28007KT P6SM BKN200
     FM252000 VRB03KT P6SM SCT030 OVC100
     FM260300 10005KT 4SM -SN BKN030 OVC080
     FM260600 10007KT 1 1/2SM -SN BR OVC010
     FM261100 12004KT 3SM -SN BR OVC005
     FM261400 VRB03KT 4SM BR OVC010=

USA.gov is the U.S. government's official web portal to all federal, state and local government web resources and services.